sensor_id;sensor_type;location;lat;lon;timestamp;pressure;altitude;pressure_sealevel;temperature
53412;BMP280;39307;52.870;13.660;2022-10-19T00:01:14;101960.03;;;11.48
53412;BMP280;39307;52.870;13.660;2022-10-19T00:03:41;101961.16;;;11.45
53412;BMP280;39307;52.870;13.660;2022-10-19T00:06:20;101960.19;;;11.46
53412;BMP280;39307;52.870;13.660;2022-10-19T00:08:47;101962.81;;;11.46
53412;BMP280;39307;52.870;13.660;2022-10-19T00:11:13;101961.16;;;11.45
53412;BMP280;39307;52.870;13.660;2022-10-19T00:13:40;101968.88;;;11.47
53412;BMP280;39307;52.870;13.660;2022-10-19T00:16:11;101966.41;;;11.45
53412;BMP280;39307;52.870;13.660;2022-10-19T00:18:39;101970.00;;;11.44
53412;BMP280;39307;52.870;13.660;2022-10-19T00:21:07;101965.59;;;11.45
53412;BMP280;39307;52.870;13.660;2022-10-19T00:23:34;101982.94;;;11.46
53412;BMP280;39307;52.870;13.660;2022-10-19T00:26:00;101978.56;;;11.46
53412;BMP280;39307;52.870;13.660;2022-10-19T00:28:26;101980.34;;;11.46
53412;BMP280;39307;52.870;13.660;2022-10-19T00:30:53;101976.91;;;11.45
53412;BMP280;39307;52.870;13.660;2022-10-19T00:33:19;101970.00;;;11.44
53412;BMP280;39307;52.870;13.660;2022-10-19T00:35:47;101978.69;;;11.45
53412;BMP280;39307;52.870;13.660;2022-10-19T00:38:13;101979.69;;;11.44
53412;BMP280;39307;52.870;13.660;2022-10-19T00:40:40;101972.28;;;11.39
53412;BMP280;39307;52.870;13.660;2022-10-19T00:43:15;101970.75;;;11.37
53412;BMP280;39307;52.870;13.660;2022-10-19T00:45:42;101980.28;;;11.38
53412;BMP280;39307;52.870;13.660;2022-10-19T00:48:12;101987.47;;;11.36
53412;BMP280;39307;52.870;13.660;2022-10-19T00:50:41;101985.69;;;11.36
53412;BMP280;39307;52.870;13.660;2022-10-19T00:53:07;101975.03;;;11.38
53412;BMP280;39307;52.870;13.660;2022-10-19T00:55:34;101973.56;;;11.35
53412;BMP280;39307;52.870;13.660;2022-10-19T00:58:02;101979.47;;;11.37
53412;BMP280;39307;52.870;13.660;2022-10-19T01:00:28;101979.63;;;11.36
53412;BMP280;39307;52.870;13.660;2022-10-19T01:02:55;101974.91;;;11.39
53412;BMP280;39307;52.870;13.660;2022-10-19T01:05:21;101977.66;;;11.38
53412;BMP280;39307;52.870;13.660;2022-10-19T01:07:48;101977.81;;;11.36
53412;BMP280;39307;52.870;13.660;2022-10-19T01:10:15;101981.09;;;11.38
53412;BMP280;39307;52.870;13.660;2022-10-19T01:15:38;101976.56;;;11.40
53412;BMP280;39307;52.870;13.660;2022-10-19T01:18:36;101980.97;;;11.40
53412;BMP280;39307;52.870;13.660;2022-10-19T01:21:22;101975.56;;;11.41
53412;BMP280;39307;52.870;13.660;2022-10-19T01:32:11;101973.09;;;11.40
53412;BMP280;39307;52.870;13.660;2022-10-19T01:34:45;101967.72;;;11.41
53412;BMP280;39307;52.870;13.660;2022-10-19T01:45:51;101962.75;;;11.38
53412;BMP280;39307;52.870;13.660;2022-10-19T01:48:30;101958.94;;;11.33
53412;BMP280;39307;52.870;13.660;2022-10-19T01:51:11;101973.69;;;11.34
53412;BMP280;39307;52.870;13.660;2022-10-19T01:53:46;101959.44;;;11.28
53412;BMP280;39307;52.870;13.660;2022-10-19T01:56:17;101954.66;;;11.24
53412;BMP280;39307;52.870;13.660;2022-10-19T01:58:45;101952.84;;;11.17
53412;BMP280;39307;52.870;13.660;2022-10-19T02:01:14;101956.09;;;11.19
53412;BMP280;39307;52.870;13.660;2022-10-19T02:03:43;101952.66;;;11.18
53412;BMP280;39307;52.870;13.660;2022-10-19T02:06:10;101952.97;;;11.15
53412;BMP280;39307;52.870;13.660;2022-10-19T02:08:47;101952.47;;;11.12
53412;BMP280;39307;52.870;13.660;2022-10-19T02:11:15;101948.66;;;11.06
53412;BMP280;39307;52.870;13.660;2022-10-19T02:13:43;101953.91;;;11.06
53412;BMP280;39307;52.870;13.660;2022-10-19T02:16:18;101957.84;;;11.02
53412;BMP280;39307;52.870;13.660;2022-10-19T02:18:48;101956.34;;;11.00
53412;BMP280;39307;52.870;13.660;2022-10-19T02:21:17;101946.47;;;10.94
53412;BMP280;39307;52.870;13.660;2022-10-19T02:23:44;101942.84;;;10.87
53412;BMP280;39307;52.870;13.660;2022-10-19T02:26:10;101942.34;;;10.84
53412;BMP280;39307;52.870;13.660;2022-10-19T02:28:37;101942.97;;;10.78
53412;BMP280;39307;52.870;13.660;2022-10-19T02:31:04;101947.22;;;10.79
53412;BMP280;39307;52.870;13.660;2022-10-19T02:33:31;101957.56;;;10.80
53412;BMP280;39307;52.870;13.660;2022-10-19T02:35:57;101962.31;;;10.85
53412;BMP280;39307;52.870;13.660;2022-10-19T02:38:24;101966.59;;;10.86
53412;BMP280;39307;52.870;13.660;2022-10-19T02:41:10;101961.50;;;10.84
53412;BMP280;39307;52.870;13.660;2022-10-19T02:43:41;101955.28;;;10.85
53412;BMP280;39307;52.870;13.660;2022-10-19T02:46:17;101952.34;;;10.88
53412;BMP280;39307;52.870;13.660;2022-10-19T02:48:45;101959.38;;;10.88
53412;BMP280;39307;52.870;13.660;2022-10-19T02:51:34;101959.38;;;10.88
53412;BMP280;39307;52.870;13.660;2022-10-19T02:54:00;101958.56;;;10.87
53412;BMP280;39307;52.870;13.660;2022-10-19T02:56:27;101956.47;;;10.91
53412;BMP280;39307;52.870;13.660;2022-10-19T02:58:54;101954.97;;;10.88
53412;BMP280;39307;52.870;13.660;2022-10-19T03:01:20;101956.13;;;10.86
53412;BMP280;39307;52.870;13.660;2022-10-19T03:03:46;101954.47;;;10.85
53412;BMP280;39307;52.870;13.660;2022-10-19T03:06:13;101953.50;;;10.86
53412;BMP280;39307;52.870;13.660;2022-10-19T03:08:39;101957.25;;;10.83
53412;BMP280;39307;52.870;13.660;2022-10-19T03:11:05;101960.19;;;10.80
53412;BMP280;39307;52.870;13.660;2022-10-19T03:13:32;101971.78;;;10.78
53412;BMP280;39307;52.870;13.660;2022-10-19T03:16:06;101968.34;;;10.77
53412;BMP280;39307;52.870;13.660;2022-10-19T03:18:32;101967.53;;;10.77
53412;BMP280;39307;52.870;13.660;2022-10-19T03:21:10;101966.53;;;10.78
53412;BMP280;39307;52.870;13.660;2022-10-19T03:23:37;101973.41;;;10.79
53412;BMP280;39307;52.870;13.660;2022-10-19T03:26:04;101958.84;;;10.76
53412;BMP280;39307;52.870;13.660;2022-10-19T03:28:30;101968.47;;;10.76
53412;BMP280;39307;52.870;13.660;2022-10-19T03:30:57;101973.59;;;10.77
53412;BMP280;39307;52.870;13.660;2022-10-19T03:33:23;101984.06;;;10.77
53412;BMP280;39307;52.870;13.660;2022-10-19T03:35:50;101972.59;;;10.78
53412;BMP280;39307;52.870;13.660;2022-10-19T03:38:16;101972.59;;;10.78
53412;BMP280;39307;52.870;13.660;2022-10-19T03:40:42;101989.31;;;10.77
53412;BMP280;39307;52.870;13.660;2022-10-19T03:43:09;101976.19;;;10.77
53412;BMP280;39307;52.870;13.660;2022-10-19T03:45:35;101989.13;;;10.79
53412;BMP280;39307;52.870;13.660;2022-10-19T03:48:01;101988.31;;;10.78
53412;BMP280;39307;52.870;13.660;2022-10-19T03:50:27;101990.31;;;10.84
53412;BMP280;39307;52.870;13.660;2022-10-19T03:52:54;101993.09;;;10.83
53412;BMP280;39307;52.870;13.660;2022-10-19T03:55:20;101987.31;;;10.79
53412;BMP280;39307;52.870;13.660;2022-10-19T03:57:46;101993.09;;;10.83
53412;BMP280;39307;52.870;13.660;2022-10-19T04:00:13;101995.72;;;10.83
53412;BMP280;39307;52.870;13.660;2022-10-19T04:02:39;102001.94;;;10.82
53412;BMP280;39307;52.870;13.660;2022-10-19T04:05:05;102002.59;;;10.84
53412;BMP280;39307;52.870;13.660;2022-10-19T04:07:32;101999.81;;;10.85
53412;BMP280;39307;52.870;13.660;2022-10-19T04:09:58;102005.06;;;10.85
53412;BMP280;39307;52.870;13.660;2022-10-19T04:12:24;102011.16;;;10.86
53412;BMP280;39307;52.870;13.660;2022-10-19T04:14:50;102016.53;;;10.84
53412;BMP280;39307;52.870;13.660;2022-10-19T04:17:17;102017.03;;;10.88
53412;BMP280;39307;52.870;13.660;2022-10-19T04:19:43;102018.16;;;10.85
53412;BMP280;39307;52.870;13.660;2022-10-19T04:22:09;102013.44;;;10.89
53412;BMP280;39307;52.870;13.660;2022-10-19T04:24:35;102016.41;;;10.94
53412;BMP280;39307;52.870;13.660;2022-10-19T04:27:01;102011.78;;;10.88
53412;BMP280;39307;52.870;13.660;2022-10-19T04:29:27;102020.63;;;10.87
53412;BMP280;39307;52.870;13.660;2022-10-19T04:31:55;102025.19;;;10.85
53412;BMP280;39307;52.870;13.660;2022-10-19T04:34:21;102028.63;;;10.85
53412;BMP280;39307;52.870;13.660;2022-10-19T04:36:47;102029.63;;;10.84
53412;BMP280;39307;52.870;13.660;2022-10-19T04:39:13;102033.56;;;10.88
53412;BMP280;39307;52.870;13.660;2022-10-19T04:41:40;102030.31;;;10.86
53412;BMP280;39307;52.870;13.660;2022-10-19T04:44:06;102036.34;;;10.87
53412;BMP280;39307;52.870;13.660;2022-10-19T04:46:32;102042.41;;;10.87
53412;BMP280;39307;52.870;13.660;2022-10-19T04:48:59;102038.00;;;10.88
53412;BMP280;39307;52.870;13.660;2022-10-19T04:51:26;102034.56;;;10.87
53412;BMP280;39307;52.870;13.660;2022-10-19T04:53:52;102043.09;;;10.89
53412;BMP280;39307;52.870;13.660;2022-10-19T04:56:21;102042.31;;;10.96
53412;BMP280;39307;52.870;13.660;2022-10-19T04:58:47;102040.16;;;10.92
53412;BMP280;39307;52.870;13.660;2022-10-19T05:01:19;102047.53;;;10.89
53412;BMP280;39307;52.870;13.660;2022-10-19T05:03:45;102042.28;;;10.89
53412;BMP280;39307;52.870;13.660;2022-10-19T05:06:13;102051.78;;;10.90
53412;BMP280;39307;52.870;13.660;2022-10-19T05:08:40;102052.28;;;10.93
53412;BMP280;39307;52.870;13.660;2022-10-19T05:11:09;102056.53;;;10.94
53412;BMP280;39307;52.870;13.660;2022-10-19T05:13:36;102050.78;;;10.91
53412;BMP280;39307;52.870;13.660;2022-10-19T05:16:04;102061.28;;;10.91
53412;BMP280;39307;52.870;13.660;2022-10-19T05:18:30;102057.16;;;10.88
53412;BMP280;39307;52.870;13.660;2022-10-19T05:21:06;102047.97;;;10.84
53412;BMP280;39307;52.870;13.660;2022-10-19T05:23:33;102043.22;;;10.88
53412;BMP280;39307;52.870;13.660;2022-10-19T05:26:01;102046.16;;;10.85
53412;BMP280;39307;52.870;13.660;2022-10-19T05:28:27;102042.59;;;10.86
53412;BMP280;39307;52.870;13.660;2022-10-19T05:30:54;102043.22;;;10.88
53412;BMP280;39307;52.870;13.660;2022-10-19T05:33:20;102041.59;;;10.87
53412;BMP280;39307;52.870;13.660;2022-10-19T05:35:46;102044.28;;;10.95
53412;BMP280;39307;52.870;13.660;2022-10-19T05:38:13;102042.94;;;10.91
53412;BMP280;39307;52.870;13.660;2022-10-19T05:40:44;102032.44;;;10.91
53412;BMP280;39307;52.870;13.660;2022-10-19T05:43:11;102042.09;;;10.90
53412;BMP280;39307;52.870;13.660;2022-10-19T05:45:37;102043.75;;;10.91
53412;BMP280;39307;52.870;13.660;2022-10-19T05:48:03;102052.59;;;10.90
53412;BMP280;39307;52.870;13.660;2022-10-19T05:50:29;102055.72;;;10.94
53412;BMP280;39307;52.870;13.660;2022-10-19T05:52:56;102055.38;;;10.89
53412;BMP280;39307;52.870;13.660;2022-10-19T05:55:22;102058.00;;;10.89
53412;BMP280;39307;52.870;13.660;2022-10-19T05:57:48;102056.03;;;10.91
53412;BMP280;39307;52.870;13.660;2022-10-19T06:00:14;102057.00;;;10.90
53412;BMP280;39307;52.870;13.660;2022-10-19T06:02:41;102059.47;;;10.91
53412;BMP280;39307;52.870;13.660;2022-10-19T06:05:08;102059.63;;;10.90
53412;BMP280;39307;52.870;13.660;2022-10-19T06:07:34;102071.09;;;10.89
53412;BMP280;39307;52.870;13.660;2022-10-19T06:10:00;102065.19;;;10.87
53412;BMP280;39307;52.870;13.660;2022-10-19T06:12:26;102069.94;;;10.91
53412;BMP280;39307;52.870;13.660;2022-10-19T06:14:52;102082.22;;;10.91
53412;BMP280;39307;52.870;13.660;2022-10-19T06:17:19;102081.63;;;10.96
53412;BMP280;39307;52.870;13.660;2022-10-19T06:19:45;102080.97;;;10.95
53412;BMP280;39307;52.870;13.660;2022-10-19T06:22:11;102072.13;;;10.95
53412;BMP280;39307;52.870;13.660;2022-10-19T06:24:37;102075.56;;;10.96
53412;BMP280;39307;52.870;13.660;2022-10-19T06:27:03;102089.84;;;11.01
53412;BMP280;39307;52.870;13.660;2022-10-19T06:29:29;102094.63;;;11.06
53412;BMP280;39307;52.870;13.660;2022-10-19T06:31:55;102095.59;;;11.05
53412;BMP280;39307;52.870;13.660;2022-10-19T06:34:21;102094.47;;;11.07
53412;BMP280;39307;52.870;13.660;2022-10-19T06:36:47;102100.56;;;11.08
53412;BMP280;39307;52.870;13.660;2022-10-19T06:39:13;102099.06;;;11.05
53412;BMP280;39307;52.870;13.660;2022-10-19T06:41:40;102091.69;;;11.09
53412;BMP280;39307;52.870;13.660;2022-10-19T06:44:07;102104.00;;;11.08
53412;BMP280;39307;52.870;13.660;2022-10-19T06:46:33;102101.22;;;11.10
53412;BMP280;39307;52.870;13.660;2022-10-19T06:49:00;102107.59;;;11.07
53412;BMP280;39307;52.870;13.660;2022-10-19T06:51:28;102118.06;;;11.07
53412;BMP280;39307;52.870;13.660;2022-10-19T06:53:55;102109.91;;;11.10
53412;BMP280;39307;52.870;13.660;2022-10-19T06:56:21;102117.47;;;11.13
53412;BMP280;39307;52.870;13.660;2022-10-19T06:58:48;102114.53;;;11.16
53412;BMP280;39307;52.870;13.660;2022-10-19T07:01:14;102116.00;;;11.19
53412;BMP280;39307;52.870;13.660;2022-10-19T07:03:40;102117.38;;;11.23
53412;BMP280;39307;52.870;13.660;2022-10-19T07:06:07;102107.38;;;11.26
53412;BMP280;39307;52.870;13.660;2022-10-19T07:08:35;102114.94;;;11.29
53412;BMP280;39307;52.870;13.660;2022-10-19T07:11:04;102122.50;;;11.32
53412;BMP280;39307;52.870;13.660;2022-10-19T07:13:31;102117.91;;;11.34
53412;BMP280;39307;52.870;13.660;2022-10-19T07:15:59;102125.56;;;11.27
53412;BMP280;39307;52.870;13.660;2022-10-19T07:18:26;102128.88;;;11.29
53412;BMP280;39307;52.870;13.660;2022-10-19T07:21:01;102130.69;;;11.29
53412;BMP280;39307;52.870;13.660;2022-10-19T07:23:31;102138.84;;;11.26
53412;BMP280;39307;52.870;13.660;2022-10-19T07:26:02;102127.88;;;11.30
53412;BMP280;39307;52.870;13.660;2022-10-19T07:28:29;102138.06;;;11.33
53412;BMP280;39307;52.870;13.660;2022-10-19T07:30:56;102144.81;;;11.36
53412;BMP280;39307;52.870;13.660;2022-10-19T07:33:22;102150.59;;;11.39
53412;BMP280;39307;52.870;13.660;2022-10-19T07:35:48;102149.47;;;11.42
53412;BMP280;39307;52.870;13.660;2022-10-19T07:38:14;102142.28;;;11.44
53412;BMP280;39307;52.870;13.660;2022-10-19T07:40:40;102142.94;;;11.46
53412;BMP280;39307;52.870;13.660;2022-10-19T07:43:07;102148.72;;;11.49
53412;BMP280;39307;52.870;13.660;2022-10-19T07:45:33;102147.56;;;11.52
53412;BMP280;39307;52.870;13.660;2022-10-19T07:47:59;102145.75;;;11.52
53412;BMP280;39307;52.870;13.660;2022-10-19T07:50:25;102150.25;;;11.59
53412;BMP280;39307;52.870;13.660;2022-10-19T07:52:52;102146.00;;;11.66
53412;BMP280;39307;52.870;13.660;2022-10-19T07:55:18;102154.06;;;11.73
53412;BMP280;39307;52.870;13.660;2022-10-19T07:57:48;102148.06;;;11.80
53412;BMP280;39307;52.870;13.660;2022-10-19T08:00:15;102151.50;;;11.81
53412;BMP280;39307;52.870;13.660;2022-10-19T08:02:42;102148.44;;;11.93
53412;BMP280;39307;52.870;13.660;2022-10-19T08:05:09;102153.69;;;11.93
53412;BMP280;39307;52.870;13.660;2022-10-19T08:07:35;102153.69;;;11.93
53412;BMP280;39307;52.870;13.660;2022-10-19T08:10:02;102141.38;;;11.93
53412;BMP280;39307;52.870;13.660;2022-10-19T08:12:28;102146.81;;;12.00
53412;BMP280;39307;52.870;13.660;2022-10-19T08:14:54;102148.81;;;11.98
53412;BMP280;39307;52.870;13.660;2022-10-19T08:17:20;102144.56;;;12.05
53412;BMP280;39307;52.870;13.660;2022-10-19T08:19:47;102143.59;;;12.13
53412;BMP280;39307;52.870;13.660;2022-10-19T08:22:13;102149.00;;;12.12
53412;BMP280;39307;52.870;13.660;2022-10-19T08:24:39;102148.88;;;12.13
53412;BMP280;39307;52.870;13.660;2022-10-19T08:27:05;102148.38;;;12.18
53412;BMP280;39307;52.870;13.660;2022-10-19T08:29:32;102145.09;;;12.16
53412;BMP280;39307;52.870;13.660;2022-10-19T08:31:58;102150.84;;;12.19
53412;BMP280;39307;52.870;13.660;2022-10-19T08:34:24;102149.59;;;12.31
53412;BMP280;39307;52.870;13.660;2022-10-19T08:36:51;102154.66;;;12.33
53412;BMP280;39307;52.870;13.660;2022-10-19T08:39:17;102156.66;;;12.39
53412;BMP280;39307;52.870;13.660;2022-10-19T08:44:44;102157.81;;;12.44
53412;BMP280;39307;52.870;13.660;2022-10-19T08:50:20;102162.28;;;12.67
53412;BMP280;39307;52.870;13.660;2022-10-19T08:52:59;102154.25;;;12.68
53412;BMP280;39307;52.870;13.660;2022-10-19T08:55:57;102156.56;;;12.79
53412;BMP280;39307;52.870;13.660;2022-10-19T08:58:56;102155.91;;;12.85
53412;BMP280;39307;52.870;13.660;2022-10-19T09:01:42;102155.78;;;12.87
53412;BMP280;39307;52.870;13.660;2022-10-19T09:09:53;102165.25;;;12.72
53412;BMP280;39307;52.870;13.660;2022-10-19T09:15:18;102157.38;;;12.72
53412;BMP280;39307;52.870;13.660;2022-10-19T09:17:46;102169.22;;;12.76
53412;BMP280;39307;52.870;13.660;2022-10-19T09:20:28;102174.00;;;13.12
53412;BMP280;39307;52.870;13.660;2022-10-19T09:25:34;102170.72;;;13.02
53412;BMP280;39307;52.870;13.660;2022-10-19T09:28:32;102173.19;;;13.11
53412;BMP280;39307;52.870;13.660;2022-10-19T09:31:01;102179.59;;;13.17
53412;BMP280;39307;52.870;13.660;2022-10-19T09:33:33;102177.63;;;13.34
53412;BMP280;39307;52.870;13.660;2022-10-19T09:36:02;102180.56;;;13.39
53412;BMP280;39307;52.870;13.660;2022-10-19T09:38:29;102192.09;;;13.30
53412;BMP280;39307;52.870;13.660;2022-10-19T09:41:15;102188.16;;;13.34
53412;BMP280;39307;52.870;13.660;2022-10-19T09:43:50;102192.22;;;13.37
53412;BMP280;39307;52.870;13.660;2022-10-19T09:46:28;102195.72;;;13.37
53412;BMP280;39307;52.870;13.660;2022-10-19T09:48:59;102202.78;;;13.29
53412;BMP280;39307;52.870;13.660;2022-10-19T09:51:40;102189.97;;;13.26
53412;BMP280;39307;52.870;13.660;2022-10-19T09:54:23;102190.28;;;13.31
53412;BMP280;39307;52.870;13.660;2022-10-19T09:56:55;102183.19;;;13.47
53412;BMP280;39307;52.870;13.660;2022-10-19T09:59:27;102180.53;;;13.55
53412;BMP280;39307;52.870;13.660;2022-10-19T10:02:16;102191.69;;;13.73
53412;BMP280;39307;52.870;13.660;2022-10-19T10:04:54;102190.06;;;13.80
53412;BMP280;39307;52.870;13.660;2022-10-19T10:07:26;102190.69;;;13.82
53412;BMP280;39307;52.870;13.660;2022-10-19T10:09:55;102189.41;;;13.70
53412;BMP280;39307;52.870;13.660;2022-10-19T10:12:21;102189.63;;;13.53
53412;BMP280;39307;52.870;13.660;2022-10-19T10:14:49;102199.63;;;13.65
53412;BMP280;39307;52.870;13.660;2022-10-19T10:17:22;102202.06;;;13.66
53412;BMP280;39307;52.870;13.660;2022-10-19T10:22:29;102205.03;;;13.63
53412;BMP280;39307;52.870;13.660;2022-10-19T10:24:56;102214.78;;;13.47
53412;BMP280;39307;52.870;13.660;2022-10-19T10:27:32;102212.78;;;13.57
53412;BMP280;39307;52.870;13.660;2022-10-19T10:30:08;102201.75;;;13.69
53412;BMP280;39307;52.870;13.660;2022-10-19T10:32:43;102196.75;;;13.90
53412;BMP280;39307;52.870;13.660;2022-10-19T10:35:19;102193.97;;;13.99
53412;BMP280;39307;52.870;13.660;2022-10-19T10:37:46;102197.41;;;14.00
53412;BMP280;39307;52.870;13.660;2022-10-19T10:40:29;102201.69;;;14.01
53412;BMP280;39307;52.870;13.660;2022-10-19T10:43:11;102198.41;;;13.99
53412;BMP280;39307;52.870;13.660;2022-10-19T10:45:48;102205.50;;;13.98
53412;BMP280;39307;52.870;13.660;2022-10-19T10:48:27;102200.22;;;13.98
53412;BMP280;39307;52.870;13.660;2022-10-19T10:50:56;102204.00;;;13.96
53412;BMP280;39307;52.870;13.660;2022-10-19T10:53:37;102200.88;;;13.92
53412;BMP280;39307;52.870;13.660;2022-10-19T10:56:09;102203.19;;;13.95
53412;BMP280;39307;52.870;13.660;2022-10-19T11:01:27;102203.63;;;14.14
53412;BMP280;39307;52.870;13.660;2022-10-19T11:04:10;102195.88;;;14.43
53412;BMP280;39307;52.870;13.660;2022-10-19T11:06:52;102194.09;;;14.43
53412;BMP280;39307;52.870;13.660;2022-10-19T11:09:34;102201.59;;;14.54
53412;BMP280;39307;52.870;13.660;2022-10-19T11:12:03;102211.53;;;14.52
53412;BMP280;39307;52.870;13.660;2022-10-19T11:14:37;102211.88;;;14.42
53412;BMP280;39307;52.870;13.660;2022-10-19T11:17:30;102213.28;;;14.22
53412;BMP280;39307;52.870;13.660;2022-10-19T11:19:58;102202.56;;;14.31
53412;BMP280;39307;52.870;13.660;2022-10-19T11:22:46;102217.13;;;14.49
53412;BMP280;39307;52.870;13.660;2022-10-19T11:25:34;102206.88;;;14.54
53412;BMP280;39307;52.870;13.660;2022-10-19T11:31:06;102204.66;;;14.43
53412;BMP280;39307;52.870;13.660;2022-10-19T11:56:30;102186.78;;;14.23
53412;BMP280;39307;52.870;13.660;2022-10-19T11:59:24;102185.28;;;14.29
53412;BMP280;39307;52.870;13.660;2022-10-19T12:02:16;102189.34;;;14.01
53412;BMP280;39307;52.870;13.660;2022-10-19T12:04:58;102175.53;;;13.99
53412;BMP280;39307;52.870;13.660;2022-10-19T12:13:41;102182.28;;;14.02
53412;BMP280;39307;52.870;13.660;2022-10-19T12:16:11;102188.22;;;13.96
53412;BMP280;39307;52.870;13.660;2022-10-19T12:18:53;102170.59;;;13.96
53412;BMP280;39307;52.870;13.660;2022-10-19T12:21:28;102174.84;;;13.97
53412;BMP280;39307;52.870;13.660;2022-10-19T12:23:57;102175.13;;;14.48
53412;BMP280;39307;52.870;13.660;2022-10-19T12:26:25;102169.97;;;14.24
53412;BMP280;39307;52.870;13.660;2022-10-19T12:28:57;102167.06;;;14.12
53412;BMP280;39307;52.870;13.660;2022-10-19T12:31:26;102168.28;;;14.01
53412;BMP280;39307;52.870;13.660;2022-10-19T12:34:02;102179.31;;;13.89
53412;BMP280;39307;52.870;13.660;2022-10-19T12:39:38;102167.81;;;13.98
53412;BMP280;39307;52.870;13.660;2022-10-19T12:42:30;102163.72;;;13.80
53412;BMP280;39307;52.870;13.660;2022-10-19T12:45:28;102160.91;;;13.73
53412;BMP280;39307;52.870;13.660;2022-10-19T12:53:32;102161.91;;;13.80
53412;BMP280;39307;52.870;13.660;2022-10-19T13:01:23;102162.41;;;13.76
53412;BMP280;39307;52.870;13.660;2022-10-19T13:06:47;102151.25;;;13.66
53412;BMP280;39307;52.870;13.660;2022-10-19T13:14:49;102144.94;;;13.98
53412;BMP280;39307;52.870;13.660;2022-10-19T13:25:20;102163.88;;;13.86
53412;BMP280;39307;52.870;13.660;2022-10-19T13:27:48;102154.31;;;13.85
53412;BMP280;39307;52.870;13.660;2022-10-19T13:36:06;102161.00;;;13.42
53412;BMP280;39307;52.870;13.660;2022-10-19T13:41:16;102168.75;;;13.43
53412;BMP280;39307;52.870;13.660;2022-10-19T13:49:15;102152.97;;;13.35
53412;BMP280;39307;52.870;13.660;2022-10-19T13:58:18;102149.34;;;13.36
53412;BMP280;39307;52.870;13.660;2022-10-19T14:04:00;102150.50;;;13.26
53412;BMP280;39307;52.870;13.660;2022-10-19T14:06:37;102152.97;;;13.35
53412;BMP280;39307;52.870;13.660;2022-10-19T14:11:49;102147.72;;;13.20
53412;BMP280;39307;52.870;13.660;2022-10-19T14:14:20;102156.44;;;13.04
53412;BMP280;39307;52.870;13.660;2022-10-19T14:16:51;102163.34;;;13.13
53412;BMP280;39307;52.870;13.660;2022-10-19T14:19:32;102151.69;;;12.92
53412;BMP280;39307;52.870;13.660;2022-10-19T14:22:27;102147.06;;;13.18
53412;BMP280;39307;52.870;13.660;2022-10-19T14:25:16;102140.16;;;13.09
53412;BMP280;39307;52.870;13.660;2022-10-19T14:27:43;102145.59;;;12.99
53412;BMP280;39307;52.870;13.660;2022-10-19T14:30:31;102141.31;;;12.83
53412;BMP280;39307;52.870;13.660;2022-10-19T14:33:00;102149.22;;;12.83
53412;BMP280;39307;52.870;13.660;2022-10-19T14:35:38;102138.38;;;12.86
53412;BMP280;39307;52.870;13.660;2022-10-19T14:38:06;102138.16;;;12.79
53412;BMP280;39307;52.870;13.660;2022-10-19T14:40:38;102145.69;;;12.67
53412;BMP280;39307;52.870;13.660;2022-10-19T14:43:23;102144.34;;;12.55
53412;BMP280;39307;52.870;13.660;2022-10-19T14:46:25;102147.81;;;12.47
53412;BMP280;39307;52.870;13.660;2022-10-19T14:49:00;102144.22;;;12.56
53412;BMP280;39307;52.870;13.660;2022-10-19T14:54:10;102146.63;;;12.42
53412;BMP280;39307;52.870;13.660;2022-10-19T14:56:52;102149.25;;;12.34
53412;BMP280;39307;52.870;13.660;2022-10-19T14:59:28;102146.09;;;12.23
53412;BMP280;39307;52.870;13.660;2022-10-19T15:01:58;102143.97;;;12.26
53412;BMP280;39307;52.870;13.660;2022-10-19T15:04:29;102146.09;;;12.23
53412;BMP280;39307;52.870;13.660;2022-10-19T15:06:57;102143.44;;;12.15
53412;BMP280;39307;52.870;13.660;2022-10-19T15:09:29;102146.69;;;12.09
53412;BMP280;39307;52.870;13.660;2022-10-19T15:12:13;102154.25;;;12.04
53412;BMP280;39307;52.870;13.660;2022-10-19T15:14:41;102144.53;;;11.97
53412;BMP280;39307;52.870;13.660;2022-10-19T15:17:50;102150.91;;;11.94
53412;BMP280;39307;52.870;13.660;2022-10-19T15:20:29;102154.31;;;11.87
53412;BMP280;39307;52.870;13.660;2022-10-19T15:22:58;102161.19;;;11.80
53412;BMP280;39307;52.870;13.660;2022-10-19T15:25:31;102152.63;;;11.78
53412;BMP280;39307;52.870;13.660;2022-10-19T15:28:26;102161.31;;;11.71
53412;BMP280;39307;52.870;13.660;2022-10-19T15:31:27;102163.41;;;11.67
53412;BMP280;39307;52.870;13.660;2022-10-19T15:33:54;102153.19;;;11.56
53412;BMP280;39307;52.870;13.660;2022-10-19T15:36:23;102146.59;;;11.53
53412;BMP280;39307;52.870;13.660;2022-10-19T15:39:06;102156.59;;;11.49
53412;BMP280;39307;52.870;13.660;2022-10-19T15:41:36;102155.28;;;11.53
53412;BMP280;39307;52.870;13.660;2022-10-19T15:44:03;102147.13;;;11.39
53412;BMP280;39307;52.870;13.660;2022-10-19T15:52:18;102164.94;;;11.10
53412;BMP280;39307;52.870;13.660;2022-10-19T15:54:49;102169.00;;;11.05
53412;BMP280;39307;52.870;13.660;2022-10-19T15:57:36;102166.47;;;10.95
53412;BMP280;39307;52.870;13.660;2022-10-19T16:00:13;102160.47;;;10.86
53412;BMP280;39307;52.870;13.660;2022-10-19T16:02:39;102167.56;;;10.76
53412;BMP280;39307;52.870;13.660;2022-10-19T16:05:05;102178.81;;;10.68
53412;BMP280;39307;52.870;13.660;2022-10-19T16:07:35;102177.78;;;10.62
53412;BMP280;39307;52.870;13.660;2022-10-19T16:10:01;102176.56;;;10.56
53412;BMP280;39307;52.870;13.660;2022-10-19T16:12:27;102180.59;;;10.51
53412;BMP280;39307;52.870;13.660;2022-10-19T16:14:54;102182.53;;;10.49
53412;BMP280;39307;52.870;13.660;2022-10-19T16:17:20;102178.13;;;10.49
53412;BMP280;39307;52.870;13.660;2022-10-19T16:19:47;102183.44;;;10.40
53412;BMP280;39307;52.870;13.660;2022-10-19T16:22:13;102192.63;;;10.44
53412;BMP280;39307;52.870;13.660;2022-10-19T16:24:40;102189.53;;;10.31